Isle of Colonsay, United Kingdom
Current Conditions -  °F | °C
As of 11:50 PM on Wednesday 28 Jan 2015 (Local Time) from EGPI Reporting Station
Broken Clouds Broken Clouds  
Wind Chill: 27°   Ceiling: 3900
Heat Index: 39°   Visibility: 6mi
Dew Point: 32°   Wind: 33mph
Humidity: 75%   Direction: 280°W
Pressure: 29.12"   Gusts: NA
Location:  56.07°N, 6.18°W
Report Text: EGPI 282350Z AUTO 28029KT 9999 FEW031/// BKN039/// 04/00 Q0986 RERA
Loading
Personal Weather Stations






























Interactive Weather Map New forecast layout! Learn more

10-Day Weather Forecast

Advertisements
Track Severe Weather on mobile